Terminal Aerodrome Forecast
Issued by NWS

Home | Current Version | Previous Version | Text Only | Print | Product List | Glossary On
Versions: 1 2 3 4 5 6 7 8 9 10 11 12 13
803
FTUS43 KIND 252328
TAFBMG
TAF
KBMG 252328Z 2600/2624 15009KT 6SM -SHRA VCTS OVC070CB
     FM260500 16007KT 5SM -SHRA OVC050
     FM261100 17007KT 6SM -SHRA OVC025
     FM261200 18007KT 6SM BR VCSH OVC030
     FM261500 19010KT P6SM VCSH OVC035
     FM261800 21011G19KT P6SM OVC040
      AMD LTD TO CLD VIS AND WIND 2601/2613=

USA.gov is the U.S. government's official web portal to all federal, state and local government web resources and services.